Time;durP1;ratioP1;P1;durP2;ratioP2;P2;SDS_P1;SDS_P2;PMS_P1;PMS_P2;Temp;Humidity;BMP_temperature;BMP_pressure;BME280_temperature;BME280_humidity;BME280_pressure;Samples;Min_cycle;Max_cycle;Signal;HPM_P1;HPM_P2
2024/04/02 00:01:10;;;;;;;6.10;1.77;;;7.30;99.90;;;12.67;55.80;97850.47;5073995;28;20040;-76
2024/04/02 00:03:37;;;;;;;5.55;1.42;;;7.30;99.90;;;12.65;56.35;97852.41;5073803;28;20044;-76
2024/04/02 00:06:05;;;;;;;5.28;1.95;;;7.30;99.90;;;12.65;55.76;97864.69;5076407;28;20115;-77
2024/04/02 00:08:32;;;;;;;3.88;2.03;;;7.30;99.90;;;12.64;55.82;97863.91;5076228;28;20083;-77
2024/04/02 00:11:05;;;;;;;4.30;1.98;;;7.30;99.90;;;12.66;56.34;97882.09;5072999;28;20051;-76
2024/04/02 00:13:32;;;;;;;5.47;2.15;;;7.30;99.90;;;12.69;55.96;97882.63;5090441;28;20525;-76
2024/04/02 00:16:00;;;;;;;6.07;2.15;;;7.30;99.90;;;12.70;56.59;97897.41;5073527;28;20600;-76
2024/04/02 00:18:29;;;;;;;3.33;1.73;;;7.30;99.90;;;12.72;56.26;97895.44;5074106;28;20052;-77
2024/04/02 00:21:01;;;;;;;3.47;1.70;;;7.20;99.90;;;12.71;55.89;97895.63;5060550;28;20045;-77
2024/04/02 00:23:27;;;;;;;6.25;2.83;;;7.20;99.90;;;12.74;56.27;97901.41;5069750;28;20087;-76
2024/04/02 00:26:02;;;;;;;5.72;2.33;;;7.20;99.90;;;12.68;56.35;97896.72;5071578;28;20510;-76
2024/04/02 00:28:29;;;;;;;6.55;2.05;;;7.10;99.90;;;12.67;56.17;97894.25;5071289;28;20043;-76
2024/04/02 00:31:02;;;;;;;5.22;2.85;;;7.00;99.90;;;12.56;56.35;97889.22;5073314;28;20074;-76
2024/04/02 00:33:30;;;;;;;8.98;2.38;;;6.90;99.90;;;12.52;56.60;97901.00;5073513;28;20584;-77
2024/04/02 00:36:02;;;;;;;4.03;1.80;;;7.00;99.90;;;12.47;56.73;97904.91;5073819;28;20048;-76
2024/04/02 00:38:28;;;;;;;4.88;2.30;;;7.00;99.90;;;12.41;56.91;97905.47;5059359;28;20048;-77
2024/04/02 00:40:56;;;;;;;3.53;1.70;;;6.90;99.90;;;12.40;56.90;97908.28;5073859;28;20139;-76
2024/04/02 00:43:24;;;;;;;5.28;2.15;;;7.00;99.90;;;12.43;57.18;97915.84;5079798;28;20082;-76
2024/04/02 00:45:52;;;;;;;3.97;2.03;;;7.00;99.90;;;12.43;56.92;97919.31;5080869;28;20048;-76
2024/04/02 00:48:19;;;;;;;9.02;2.72;;;7.00;99.90;;;12.45;57.01;97921.75;5072690;28;20044;-77
2024/04/02 00:50:49;;;;;;;4.72;1.52;;;7.00;99.90;;;12.46;56.38;97899.81;5073150;28;20497;-77
2024/04/02 00:53:16;;;;;;;4.07;2.15;;;7.00;99.90;;;12.47;56.77;97915.41;5068186;28;20589;-77
2024/04/02 00:55:45;;;;;;;5.57;1.98;;;6.90;99.90;;;12.49;56.20;97910.81;5073250;28;20036;-78
2024/04/02 00:58:12;;;;;;;5.57;1.90;;;7.00;99.90;;;12.47;57.04;97917.22;5073102;28;20075;-77
2024/04/02 01:00:40;;;;;;;3.03;1.52;;;7.00;99.90;;;12.43;56.46;97911.44;5073734;28;20076;-77
2024/04/02 01:03:07;;;;;;;2.28;1.27;;;6.90;99.90;;;12.38;57.09;97907.59;5072508;28;20058;-77
2024/04/02 01:05:37;;;;;;;2.65;1.40;;;6.90;99.90;;;12.36;56.39;97913.00;5083193;28;20131;-77
2024/04/02 01:08:08;;;;;;;4.22;1.48;;;6.90;99.90;;;12.31;57.09;97917.88;5076384;28;20075;-78
2024/04/02 01:10:36;;;;;;;3.72;1.30;;;6.90;99.90;;;12.28;57.30;97915.50;5073202;28;20437;-77
2024/04/02 01:13:02;;;;;;;4.38;1.30;;;6.90;99.90;;;12.28;57.00;97919.97;5073058;28;20102;-77
2024/04/02 01:15:30;;;;;;;4.30;1.90;;;6.90;99.90;;;12.28;57.30;97922.59;5073387;28;20055;-76
2024/04/02 01:17:57;;;;;;;2.35;1.20;;;6.90;99.90;;;12.27;57.27;97920.94;5072430;28;20039;-77
2024/04/02 01:20:24;;;;;;;4.18;2.42;;;6.90;99.90;;;12.25;57.14;97920.25;5069695;28;20128;-76
2024/04/02 01:22:52;;;;;;;4.10;1.95;;;6.80;99.90;;;12.20;57.24;97923.31;5069565;28;20049;-76
2024/04/02 01:25:23;;;;;;;3.55;1.63;;;6.80;99.90;;;12.15;57.52;97929.97;5070475;28;20123;-77
2024/04/02 01:27:50;;;;;;;5.55;1.50;;;6.80;99.90;;;12.10;57.69;97922.53;5072379;28;20095;-78
2024/04/02 01:30:17;;;;;;;5.18;2.35;;;6.80;99.90;;;12.14;57.36;97926.53;5076566;28;20119;-77
2024/04/02 01:32:44;;;;;;;5.22;2.25;;;6.80;99.90;;;12.12;57.63;97920.59;5076038;28;20378;-76
2024/04/02 01:35:14;;;;;;;5.60;1.55;;;6.80;99.90;;;12.02;57.67;97921.63;5076069;28;20047;-77
2024/04/02 01:37:40;;;;;;;2.20;1.40;;;6.80;99.90;;;11.96;57.19;97926.47;5076191;28;20071;-77
2024/04/02 01:40:09;;;;;;;6.40;1.65;;;6.80;99.90;;;11.93;57.81;97920.69;5075975;28;20131;-77
2024/04/02 01:42:37;;;;;;;3.83;1.38;;;6.70;99.90;;;11.93;57.27;97933.78;5076411;28;20082;-77
2024/04/02 01:45:05;;;;;;;5.40;2.05;;;6.70;99.90;;;11.93;57.96;97925.94;5076546;28;20680;-77
2024/04/02 01:47:32;;;;;;;5.60;1.67;;;6.70;99.90;;;11.92;57.56;97925.09;5077334;28;20588;-77
2024/04/02 01:49:59;;;;;;;3.67;1.10;;;6.70;99.90;;;11.89;57.97;97938.50;5076568;28;20086;-76
2024/04/02 01:52:26;;;;;;;3.00;1.27;;;6.70;99.90;;;11.92;57.78;97930.34;5076119;28;20101;-77
2024/04/02 01:54:54;;;;;;;3.13;1.63;;;6.70;99.90;;;11.90;57.68;97924.44;5078568;28;20048;-77
2024/04/02 01:57:20;;;;;;;3.97;1.20;;;6.70;99.90;;;11.89;57.91;97928.00;5076093;28;20539;-78
2024/04/02 01:59:49;;;;;;;5.88;2.25;;;6.70;99.90;;;11.91;57.31;97933.97;5076311;28;20048;-77
2024/04/02 02:02:15;;;;;;;3.08;1.50;;;6.70;99.90;;;11.93;57.35;97934.63;5076140;28;20075;-77
2024/04/02 02:04:43;;;;;;;3.33;1.30;;;6.70;99.90;;;11.97;57.42;97943.03;5059826;28;20055;-78
2024/04/02 02:07:10;;;;;;;3.13;1.10;;;6.70;99.90;;;11.98;57.61;97942.06;5076170;28;20444;-77
2024/04/02 02:09:37;;;;;;;2.78;1.20;;;6.70;99.90;;;12.00;57.45;97952.41;5075851;28;20105;-77
2024/04/02 02:12:05;;;;;;;2.63;1.20;;;6.70;99.90;;;12.00;57.57;97955.03;5076450;28;20044;-78
2024/04/02 02:14:33;;;;;;;9.30;1.58;;;6.60;99.90;;;12.00;57.56;97960.25;5076381;28;20131;-77
2024/04/02 02:17:02;;;;;;;4.00;1.58;;;6.60;99.90;;;12.02;57.64;97960.97;5075842;28;20036;-77
2024/04/02 02:19:29;;;;;;;2.60;1.27;;;6.60;99.90;;;12.02;57.68;97967.00;5076106;28;20075;-77
2024/04/02 02:21:56;;;;;;;3.03;1.30;;;6.50;99.90;;;12.03;57.72;97967.84;5065986;28;20083;-77
2024/04/02 02:24:23;;;;;;;3.30;1.10;;;6.60;99.90;;;12.04;57.74;97966.88;5073491;28;20044;-77
2024/04/02 02:26:52;;;;;;;2.70;1.10;;;6.60;99.90;;;12.03;57.57;97967.84;5075612;28;20075;-77
2024/04/02 02:29:22;;;;;;;2.33;1.00;;;6.60;99.90;;;12.02;57.62;97968.84;5075689;28;20524;-78
2024/04/02 02:31:50;;;;;;;2.88;1.27;;;6.60;99.90;;;12.04;57.63;97975.56;5076820;28;20101;-77
2024/04/02 02:34:19;;;;;;;1.77;0.80;;;6.50;99.90;;;12.05;57.72;97974.63;5075887;28;20052;-77
2024/04/02 02:36:45;;;;;;;5.70;1.45;;;6.50;99.90;;;12.06;57.84;97968.38;5075812;28;20076;-77
2024/04/02 02:39:13;;;;;;;5.00;1.33;;;6.50;99.90;;;12.01;57.42;97975.88;5075144;28;20134;-77
2024/04/02 02:41:40;;;;;;;7.75;1.65;;;6.50;99.90;;;11.98;57.14;97970.09;5075556;28;20123;-77
2024/04/02 02:44:07;;;;;;;2.55;1.05;;;6.40;99.90;;;11.94;57.54;97980.88;5072706;28;20125;-77
2024/04/02 02:46:34;;;;;;;2.97;1.17;;;6.40;99.90;;;11.90;57.81;97982.13;5059392;28;20068;-77
2024/04/02 02:49:01;;;;;;;3.00;1.50;;;6.50;99.90;;;11.92;57.54;97987.22;5075125;28;20509;-76
2024/04/02 02:51:29;;;;;;;2.63;1.38;;;6.40;99.90;;;11.95;57.68;97981.69;5074445;28;20090;-77
2024/04/02 02:53:57;;;;;;;4.18;1.20;;;6.30;99.90;;;11.93;57.62;97994.94;5075234;28;20054;-77
2024/04/02 02:56:24;;;;;;;1.95;0.90;;;6.30;99.90;;;11.93;57.73;98001.97;5075784;28;20082;-76
2024/04/02 02:58:52;;;;;;;2.28;1.30;;;6.30;99.90;;;11.94;57.41;97996.59;5075032;28;20067;-77
2024/04/02 03:01:18;;;;;;;2.15;1.17;;;6.30;99.90;;;11.96;57.21;98004.31;5078148;28;20123;-78
2024/04/02 03:03:48;;;;;;;2.80;1.20;;;6.30;99.90;;;11.98;57.79;98001.56;5074639;28;20115;-78
2024/04/02 03:06:14;;;;;;;2.63;1.38;;;6.30;99.90;;;11.94;57.36;98004.47;5075499;28;20079;-77
2024/04/02 03:08:43;;;;;;;2.88;1.10;;;6.30;99.90;;;11.93;57.26;98010.66;5074994;28;20505;-77
2024/04/02 03:11:10;;;;;;;3.05;1.45;;;6.20;99.90;;;11.92;57.71;98014.25;5071459;28;20459;-77
2024/04/02 03:13:38;;;;;;;2.65;1.20;;;6.30;99.90;;;11.94;57.55;98012.34;5088788;28;20080;-77
2024/04/02 03:16:05;;;;;;;3.88;1.17;;;6.30;99.90;;;11.92;57.89;98011.63;5075014;28;20063;-77
2024/04/02 03:18:33;;;;;;;2.78;1.17;;;6.20;99.90;;;11.91;57.91;98004.75;5074979;28;20127;-77
2024/04/02 03:21:00;;;;;;;5.20;1.05;;;6.20;99.90;;;11.89;57.37;98009.28;5064253;28;20140;-77
2024/04/02 03:23:27;;;;;;;2.42;1.27;;;6.20;99.90;;;11.86;57.79;98008.75;5074696;28;20075;-77
2024/04/02 03:26:00;;;;;;;3.15;1.08;;;6.10;99.90;;;11.79;57.67;98016.34;5074721;28;20102;-77
2024/04/02 03:28:30;;;;;;;4.75;1.30;;;6.10;99.90;;;11.77;57.46;98020.94;5075259;28;20127;-77
2024/04/02 03:30:57;;;;;;;5.53;1.45;;;6.10;99.90;;;11.76;57.41;98014.03;5060940;28;20122;-77
2024/04/02 03:33:26;;;;;;;4.82;1.52;;;6.10;99.90;;;11.72;57.39;98017.09;5074570;28;20079;-77
2024/04/02 03:35:52;;;;;;;2.40;1.08;;;6.10;99.90;;;11.66;57.32;98013.19;5071631;28;20454;-77
2024/04/02 03:38:20;;;;;;;2.95;1.05;;;6.10;99.90;;;11.64;57.57;98023.00;5083596;28;20048;-76
2024/04/02 03:40:49;;;;;;;1.45;0.90;;;6.10;99.90;;;11.61;58.07;98025.06;5062450;28;20140;-78
2024/04/02 03:43:36;;;;;;;2.03;1.10;;;6.10;99.90;;;11.58;57.71;98025.34;5072971;28;20414;-76
2024/04/02 03:46:04;;;;;;;5.43;1.00;;;6.10;99.90;;;11.62;57.55;98029.34;5074949;28;20075;-77
2024/04/02 03:48:31;;;;;;;2.65;1.15;;;6.10;99.90;;;11.58;57.89;98023.56;5078349;28;20095;-78
2024/04/02 03:50:59;;;;;;;3.75;1.52;;;6.10;99.90;;;11.55;57.49;98030.88;5072700;28;20064;-77
2024/04/02 03:53:26;;;;;;;2.58;1.08;;;6.00;99.90;;;11.50;57.42;98028.66;5071046;28;20036;-77
2024/04/02 03:55:57;;;;;;;2.42;1.15;;;6.00;99.90;;;11.45;57.47;98036.97;5087984;28;20097;-77
2024/04/02 03:58:25;;;;;;;2.20;0.80;;;6.00;99.90;;;11.48;57.87;98038.47;5091304;28;20154;-76
2024/04/02 04:00:55;;;;;;;3.03;1.60;;;6.00;99.90;;;11.52;57.56;98042.47;5078268;28;20493;-76
2024/04/02 04:03:23;;;;;;;4.55;1.17;;;6.00;99.90;;;11.52;57.72;98055.56;5087074;28;20097;-77
2024/04/02 04:05:58;;;;;;;5.53;1.42;;;6.00;99.90;;;11.48;57.42;98062.06;5064221;28;20475;-76
2024/04/02 04:08:26;;;;;;;9.27;1.38;;;5.90;99.90;;;11.52;57.28;98058.19;5050592;28;20091;-77
2024/04/02 04:10:54;;;;;;;3.67;0.88;;;5.90;99.90;;;11.53;57.55;98065.06;5067202;28;20109;-77
2024/04/02 04:13:20;;;;;;;4.18;1.10;;;5.90;99.90;;;11.51;58.11;98059.16;5090985;28;20051;-77
2024/04/02 04:15:54;;;;;;;22.67;8.48;;;5.90;99.90;;;11.47;57.59;98060.38;5067352;28;20526;-76
2024/04/02 04:18:21;;;;;;;26.90;10.80;;;5.80;99.90;;;11.53;57.98;98062.44;5070644;28;20781;-76
2024/04/02 04:20:53;;;;;;;8.35;2.28;;;5.90;99.90;;;11.53;58.04;98059.81;5062878;28;20049;-77
2024/04/02 04:23:20;;;;;;;13.27;2.08;;;5.90;99.90;;;11.55;57.67;98071.03;5067460;28;20502;-76
2024/04/02 04:25:47;;;;;;;3.22;1.17;;;5.90;99.90;;;11.56;57.38;98074.47;5070672;28;20135;-76
2024/04/02 04:28:14;;;;;;;7.15;1.80;;;5.90;99.90;;;11.55;57.83;98071.03;5074402;28;20044;-76
2024/04/02 04:30:41;;;;;;;8.82;1.40;;;5.90;99.90;;;11.56;57.64;98077.09;5077783;28;20095;-77
2024/04/02 04:33:09;;;;;;;8.07;1.95;;;5.90;99.90;;;11.55;57.67;98076.25;5076916;28;20048;-77
2024/04/02 04:35:37;;;;;;;7.30;1.98;;;5.80;99.90;;;11.53;57.61;98078.16;5072354;28;20063;-77
2024/04/02 04:38:04;;;;;;;9.48;1.65;;;5.80;99.90;;;11.54;57.75;98085.06;5073917;28;20161;-76
2024/04/02 04:40:31;;;;;;;10.00;1.58;;;5.80;99.90;;;11.54;57.68;98087.69;5073504;28;20072;-76
2024/04/02 04:42:58;;;;;;;7.70;1.70;;;5.80;99.90;;;11.52;57.90;98097.50;5053488;28;20072;-76
2024/04/02 04:45:25;;;;;;;6.18;1.50;;;5.70;99.90;;;11.47;57.78;98097.06;5062108;28;20101;-76
2024/04/02 04:47:52;;;;;;;7.50;1.80;;;5.80;99.90;;;11.42;57.90;98097.50;5070376;28;20098;-76
2024/04/02 04:50:21;;;;;;;6.68;1.60;;;5.80;99.90;;;11.38;58.07;98108.38;5068191;28;20119;-77
2024/04/02 04:52:47;;;;;;;2.95;1.50;;;5.70;99.90;;;11.38;58.59;98111.84;5073227;28;20068;-76
2024/04/02 04:55:15;;;;;;;7.95;2.50;;;5.80;99.90;;;11.41;58.26;98114.19;5073358;28;20170;-76
2024/04/02 04:57:41;;;;;;;2.53;1.45;;;5.80;99.90;;;11.44;58.51;98113.06;5069916;28;20135;-77
2024/04/02 05:00:12;;;;;;;9.45;1.52;;;5.80;99.90;;;11.47;58.54;98118.03;5063424;28;20366;-76
2024/04/02 05:02:38;;;;;;;5.75;1.98;;;5.70;99.90;;;11.48;58.40;98124.94;5074606;28;20090;-76
2024/04/02 05:05:07;;;;;;;4.85;1.70;;;5.70;99.90;;;11.49;58.31;98124.00;5070693;28;20071;-76
2024/04/02 05:07:35;;;;;;;6.50;2.50;;;5.80;99.90;;;11.44;58.31;98126.16;5077907;28;20040;-77
2024/04/02 05:10:04;;;;;;;6.03;1.45;;;5.70;99.90;;;11.40;57.89;98130.03;5077605;28;20793;-76
2024/04/02 05:12:30;;;;;;;7.13;1.85;;;5.70;99.90;;;11.35;58.06;98130.44;5077387;28;20036;-76
2024/04/02 05:14:58;;;;;;;4.95;1.80;;;5.70;99.90;;;11.38;58.13;98134.59;5060844;28;20090;-76
2024/04/02 05:17:26;;;;;;;4.50;1.90;;;5.80;99.90;;;11.37;58.36;98149.47;5077395;28;20486;-76
2024/04/02 05:19:58;;;;;;;7.53;2.70;;;6.00;99.90;;;11.40;58.18;98153.59;5077173;28;20043;-77
2024/04/02 05:22:24;;;;;;;9.30;2.70;;;5.70;99.90;;;11.38;58.29;98151.13;5067767;28;20072;-76
2024/04/02 05:24:53;;;;;;;4.07;1.98;;;5.70;99.90;;;11.38;57.95;98163.41;5073449;28;20059;-77
2024/04/02 05:27:20;;;;;;;8.15;2.00;;;5.70;99.90;;;11.29;58.30;98166.84;5057099;28;20094;-76
2024/04/02 05:29:48;;;;;;;3.78;1.65;;;5.70;99.90;;;11.28;58.03;98167.78;5065451;28;20119;-77
2024/04/02 05:32:14;;;;;;;3.42;1.75;;;5.70;99.90;;;11.29;58.39;98172.09;5076363;28;20119;-77
2024/04/02 05:34:42;;;;;;;7.65;2.00;;;5.70;99.90;;;11.29;58.19;98177.31;5076036;28;20052;-76
2024/04/02 05:37:08;;;;;;;2.90;1.52;;;5.70;99.90;;;11.30;58.10;98178.97;5076709;28;20498;-76
2024/04/02 05:39:36;;;;;;;6.13;1.98;;;5.70;99.90;;;11.29;58.01;98182.56;5066930;28;20040;-76
2024/04/02 05:42:04;;;;;;;5.72;2.25;;;5.80;99.90;;;11.31;58.00;98180.63;5076665;28;20115;-77
2024/04/02 05:44:31;;;;;;;6.85;2.88;;;5.70;99.90;;;11.32;58.29;98185.75;5076432;28;20520;-76
2024/04/02 05:46:59;;;;;;;10.15;2.65;;;5.80;99.90;;;11.37;58.00;98186.16;5075447;28;20051;-77
2024/04/02 05:49:27;;;;;;;6.30;2.13;;;5.80;99.90;;;11.41;58.20;98189.34;5074984;28;20127;-76
2024/04/02 05:51:53;;;;;;;5.25;1.77;;;5.90;99.90;;;11.43;58.13;98196.09;5081142;28;20074;-76
2024/04/02 05:54:21;;;;;;;5.30;1.98;;;5.90;99.90;;;11.46;58.32;98194.97;5076238;28;20540;-76
2024/04/02 05:56:47;;;;;;;4.65;1.95;;;6.00;99.90;;;11.49;58.15;98197.34;5077107;28;20135;-77
2024/04/02 05:59:16;;;;;;;4.18;1.58;;;6.20;99.90;;;11.51;58.25;98200.66;5077489;28;20043;-77
2024/04/02 06:01:43;;;;;;;5.10;2.30;;;6.30;99.90;;;11.54;57.83;98204.78;5076470;28;20127;-76
2024/04/02 06:04:10;;;;;;;7.38;2.65;;;6.50;99.90;;;11.62;57.81;98199.72;5076383;28;20397;-77
2024/04/02 06:06:37;;;;;;;13.10;6.53;;;6.60;99.90;;;11.67;58.17;98198.31;5076263;28;20047;-77
2024/04/02 06:09:06;;;;;;;7.65;2.35;;;6.70;99.90;;;11.74;58.05;98201.25;5076360;28;20075;-77
2024/04/02 06:11:33;;;;;;;7.30;3.63;;;6.80;99.90;;;11.80;57.46;98201.53;5076602;28;20110;-78
2024/04/02 06:14:00;;;;;;;8.70;3.55;;;6.90;99.90;;;11.88;57.73;98196.44;5075693;28;20099;-76
2024/04/02 06:16:28;;;;;;;12.80;6.28;;;7.10;99.90;;;12.01;57.27;98192.72;5075993;28;20052;-76
2024/04/02 06:18:56;;;;;;;10.88;3.45;;;7.30;99.90;;;12.08;57.21;98196.44;5076373;28;20464;-77
2024/04/02 06:21:24;;;;;;;7.47;3.10;;;7.40;99.90;;;12.18;56.87;98194.63;5073799;28;20048;-77
2024/04/02 06:23:52;;;;;;;10.88;4.72;;;7.50;99.90;;;12.25;56.48;98193.09;5076156;28;20121;-77
2024/04/02 06:26:18;;;;;;;9.27;3.50;;;7.60;99.90;;;12.30;57.03;98199.56;5076312;28;20090;-77
2024/04/02 06:28:46;;;;;;;6.97;3.17;;;7.70;99.90;;;12.43;56.15;98204.53;5075450;28;20532;-76
2024/04/02 06:31:13;;;;;;;7.05;1.92;;;7.90;99.90;;;12.50;56.43;98203.00;5075880;28;20080;-77
2024/04/02 06:33:42;;;;;;;4.40;2.63;;;8.00;99.90;;;12.61;56.35;98210.72;5075973;28;20087;-77
2024/04/02 06:36:08;;;;;;;3.47;1.83;;;8.10;99.90;;;12.71;55.86;98213.31;5075924;28;20079;-78
2024/04/02 06:38:36;;;;;;;6.10;2.17;;;8.30;99.90;;;12.86;55.66;98210.06;5075445;28;20135;-77
2024/04/02 06:41:04;;;;;;;4.72;2.78;;;8.40;99.90;;;13.00;55.50;98211.41;5075803;28;20517;-77
2024/04/02 06:43:31;;;;;;;4.40;1.95;;;8.60;99.90;;;13.15;55.34;98219.63;5075360;28;20067;-76
2024/04/02 06:46:00;;;;;;;3.95;1.73;;;8.70;99.90;;;13.23;54.76;98223.22;5075623;28;20123;-77
2024/04/02 06:48:28;;;;;;;6.32;1.17;;;8.80;99.90;;;13.30;54.32;98229.53;5075270;28;20094;-76
2024/04/02 06:51:00;;;;;;;3.15;1.15;;;8.80;99.90;;;13.36;54.66;98236.00;5075262;28;20559;-76
2024/04/02 06:53:28;;;;;;;4.05;1.95;;;9.00;99.90;;;13.51;54.60;98229.28;5075300;28;20478;-77
2024/04/02 06:55:56;;;;;;;2.25;1.15;;;9.20;99.90;;;13.68;53.86;98235.53;5075307;28;20059;-77
2024/04/02 06:58:23;;;;;;;2.45;1.27;;;9.30;99.90;;;13.80;53.66;98245.69;5075185;28;20036;-77
2024/04/02 07:00:52;;;;;;;3.80;0.82;;;9.40;99.90;;;13.90;53.43;98243.81;5074955;28;20407;-78
2024/04/02 07:03:20;;;;;;;3.95;1.20;;;9.50;99.90;;;14.02;53.34;98241.81;5071560;28;20044;-77
2024/04/02 07:05:49;;;;;;;2.35;0.75;;;9.70;99.90;;;14.13;52.82;98246.81;5073141;28;20131;-77
2024/04/02 07:08:18;;;;;;;3.35;1.20;;;9.80;99.90;;;14.26;52.79;98249.09;5075117;28;20044;-79
2024/04/02 07:10:46;;;;;;;1.85;1.08;;;10.00;99.90;;;14.39;52.20;98249.56;5074916;28;20048;-78
2024/04/02 07:13:13;;;;;;;2.35;0.80;;;10.00;99.90;;;14.45;52.26;98248.94;5074607;28;20038;-79
2024/04/02 07:15:42;;;;;;;6.95;1.20;;;10.20;99.90;;;14.58;51.51;98254.63;5074982;28;20497;-78
2024/04/02 07:18:08;;;;;;;5.13;1.30;;;10.30;99.70;;;14.67;51.53;98256.34;5061672;28;20044;-78
2024/04/02 07:20:36;;;;;;;2.78;0.90;;;10.50;99.50;;;14.79;51.73;98267.44;5075029;28;20182;-78
2024/04/02 07:23:02;;;;;;;4.97;1.00;;;10.60;98.00;;;14.90;51.29;98275.09;5074500;28;20078;-78
2024/04/02 07:25:31;;;;;;;4.03;1.10;;;10.60;97.30;;;15.02;50.51;98273.84;5073393;28;20079;-78
2024/04/02 07:27:58;;;;;;;3.45;0.93;;;10.80;97.70;;;15.24;50.47;98277.75;5071575;28;20500;-77
2024/04/02 07:30:27;;;;;;;4.72;1.13;;;11.10;96.70;;;15.41;50.18;98275.03;5080563;28;20127;-77
2024/04/02 07:32:53;;;;;;;4.18;1.05;;;11.10;95.20;;;15.56;49.66;98283.22;5063733;28;20055;-77
2024/04/02 07:35:21;;;;;;;2.88;1.20;;;11.40;95.20;;;15.74;49.63;98286.56;5073751;28;20131;-77
2024/04/02 07:37:47;;;;;;;3.40;1.00;;;11.60;94.50;;;15.94;49.50;98289.75;5073766;28;20131;-78
2024/04/02 07:40:16;;;;;;;1.55;0.88;;;11.80;93.80;;;16.15;49.21;98295.41;5074718;28;20048;-77
2024/04/02 07:42:43;;;;;;;3.38;1.08;;;12.00;93.30;;;16.31;48.58;98310.44;5066347;28;20133;-77
2024/04/02 07:45:11;;;;;;;3.97;1.20;;;11.90;92.40;;;16.45;48.48;98304.53;5070846;28;20052;-77
2024/04/02 07:47:38;;;;;;;4.13;1.45;;;12.20;91.90;;;16.60;48.24;98298.44;5074211;28;20135;-77
2024/04/02 07:50:06;;;;;;;3.45;1.05;;;12.30;91.50;;;16.80;47.79;98306.03;5074447;28;20470;-77
2024/04/02 07:52:33;;;;;;;2.03;0.80;;;12.60;89.10;;;16.98;47.58;98318.09;5073583;28;20051;-77
2024/04/02 07:55:00;;;;;;;3.17;1.08;;;12.90;89.20;;;17.19;47.11;98311.44;5074557;28;20070;-77
2024/04/02 07:57:27;;;;;;;3.70;0.85;;;13.20;88.10;;;17.38;46.25;98317.19;5073349;28;20457;-77
2024/04/02 07:59:56;;;;;;;3.08;0.85;;;13.30;85.90;;;17.48;45.85;98307.22;5074319;28;20217;-78
2024/04/02 08:02:22;;;;;;;5.85;0.98;;;13.40;84.40;;;17.51;45.32;98306.06;5074084;28;20044;-78
2024/04/02 08:04:52;;;;;;;3.60;0.77;;;13.30;83.50;;;17.59;45.09;98303.38;5073769;28;20051;-78
2024/04/02 08:07:20;;;;;;;1.85;0.93;;;13.30;83.80;;;17.67;44.44;98299.91;5070939;28;20517;-77
2024/04/02 08:09:47;;;;;;;8.98;2.53;;;13.40;81.80;;;17.72;44.58;98305.47;5073760;28;20458;-77
2024/04/02 08:12:14;;;;;;;3.30;1.30;;;13.50;81.90;;;17.84;44.13;98312.91;5072827;28;20072;-78
2024/04/02 08:14:41;;;;;;;6.63;1.10;;;13.70;80.70;;;17.93;43.79;98318.97;5069895;28;20460;-77
2024/04/02 08:17:09;;;;;;;3.60;0.77;;;13.70;80.20;;;17.97;43.84;98322.91;5074569;28;20445;-77
2024/04/02 08:19:37;;;;;;;2.75;0.80;;;13.50;80.80;;;18.00;43.96;98333.16;5057621;28;20048;-76
2024/04/02 08:22:04;;;;;;;2.00;0.95;;;13.60;81.20;;;18.05;43.74;98336.09;5074800;28;20131;-75
2024/04/02 08:24:31;;;;;;;4.50;1.30;;;13.60;81.10;;;18.09;43.71;98334.75;5074668;28;20048;-77
2024/04/02 08:26:58;;;;;;;2.70;0.93;;;13.60;80.90;;;18.08;43.14;98331.28;5090876;28;20090;-77
2024/04/02 08:29:26;;;;;;;3.28;1.00;;;13.70;80.20;;;18.07;43.21;98329.66;5057645;28;20072;-77
2024/04/02 08:31:52;;;;;;;2.42;1.25;;;13.70;80.10;;;18.15;43.40;98342.00;5074107;28;20051;-77
2024/04/02 08:34:22;;;;;;;3.83;0.98;;;13.90;80.40;;;18.34;43.61;98333.59;5074056;28;20054;-77
2024/04/02 08:36:48;;;;;;;2.97;1.10;;;14.20;79.40;;;18.55;42.84;98333.84;5074648;28;20052;-77
2024/04/02 08:39:17;;;;;;;4.45;1.10;;;14.40;78.10;;;18.64;42.46;98340.72;5074374;28;20040;-77
2024/04/02 08:41:43;;;;;;;2.75;0.80;;;14.30;77.80;;;18.71;41.95;98340.84;5074032;28;20127;-77
2024/04/02 08:44:11;;;;;;;1.77;0.70;;;14.40;76.90;;;18.84;41.44;98345.53;5070758;28;20494;-78
2024/04/02 08:46:37;;;;;;;4.25;0.77;;;14.50;75.50;;;18.92;40.81;98342.81;5074319;28;20465;-77
2024/04/02 08:49:06;;;;;;;1.50;0.57;;;14.40;75.70;;;18.97;40.42;98343.09;5074153;28;20074;-77
2024/04/02 08:51:33;;;;;;;1.45;0.50;;;14.50;74.00;;;19.06;39.71;98334.91;5072520;28;20138;-77
2024/04/02 08:54:01;;;;;;;1.80;0.50;;;14.70;72.30;;;19.13;40.38;98333.16;5070606;28;20137;-77
2024/04/02 08:56:28;;;;;;;1.30;0.60;;;14.70;74.40;;;19.33;40.49;98337.97;5072764;28;20076;-77
2024/04/02 08:58:56;;;;;;;3.22;0.80;;;15.20;75.00;;;19.48;40.12;98336.16;5072539;28;20048;-77
2024/04/02 09:01:23;;;;;;;1.77;0.85;;;15.10;72.80;;;19.55;39.15;98340.56;5070974;28;20048;-77
2024/04/02 09:03:51;;;;;;;4.25;0.88;;;15.10;71.30;;;19.67;40.03;98341.75;5074220;28;20443;-78
2024/04/02 09:06:18;;;;;;;2.30;0.40;;;15.30;73.20;;;19.81;39.49;98341.91;5065282;28;20175;-77
2024/04/02 09:08:48;;;;;;;2.15;0.52;;;15.60;70.80;;;19.83;38.48;98343.38;5053087;28;20445;-78
2024/04/02 09:11:15;;;;;;;2.30;0.63;;;15.30;69.20;;;19.81;39.03;98340.09;5071703;28;20131;-77
2024/04/02 09:13:43;;;;;;;0.77;0.30;;;15.40;71.10;;;19.90;38.49;98344.28;5073421;28;20044;-77
2024/04/02 09:16:10;;;;;;;1.65;0.32;;;15.60;68.50;;;19.96;38.03;98350.69;5074168;28;20092;-77
2024/04/02 09:18:42;;;;;;;1.00;0.28;;;15.60;67.70;;;19.99;37.61;98343.16;5074140;28;20517;-78
2024/04/02 09:21:11;;;;;;;2.00;0.38;;;15.40;67.40;;;20.02;37.57;98345.44;5054194;28;20055;-78
2024/04/02 09:23:39;;;;;;;1.83;0.52;;;15.40;67.70;;;20.03;37.80;98352.41;5053646;28;20088;-78
2024/04/02 09:26:10;;;;;;;2.60;0.50;;;15.50;69.40;;;20.04;37.38;98354.09;5054313;28;20450;-79
2024/04/02 09:28:39;;;;;;;3.38;0.60;;;15.60;67.80;;;20.11;37.72;98343.53;5072550;28;20044;-80
2024/04/02 09:31:06;;;;;;;2.58;0.80;;;15.70;68.40;;;20.25;37.71;98340.03;5073729;28;20101;-79
2024/04/02 09:33:40;;;;;;;2.72;0.80;;;16.00;68.20;;;20.42;37.54;98341.44;5092148;28;20040;-77
2024/04/02 09:36:09;;;;;;;1.45;0.52;;;16.20;67.80;;;20.55;37.27;98336.25;5070773;28;20123;-79
2024/04/02 09:38:38;;;;;;;1.10;0.40;;;16.30;66.40;;;20.65;36.85;98334.09;5073184;28;20047;-78
2024/04/02 09:41:05;;;;;;;4.20;0.50;;;16.20;64.80;;;20.69;36.34;98327.41;5064758;28;20048;-78
2024/04/02 09:43:35;;;;;;;2.42;0.47;;;16.30;65.40;;;20.78;36.28;98333.41;5067558;28;20059;-79
2024/04/02 09:46:03;;;;;;;6.40;0.38;;;16.40;64.50;;;20.92;36.88;98323.69;5053372;28;20061;-78
2024/04/02 09:48:33;;;;;;;1.23;0.70;;;16.70;66.80;;;21.09;37.19;98331.25;5072958;28;20123;-79
2024/04/02 09:51:01;;;;;;;2.38;0.55;;;16.90;67.30;;;21.23;37.46;98332.16;5074270;28;20533;-78
2024/04/02 09:53:29;;;;;;;3.95;0.50;;;17.10;66.70;;;21.38;36.93;98340.88;5058459;28;20063;-78
2024/04/02 09:55:56;;;;;;;2.05;0.50;;;17.20;65.40;;;21.49;36.16;98342.16;5048189;28;20049;-78
2024/04/02 09:58:24;;;;;;;1.30;0.55;;;17.20;63.10;;;21.51;35.58;98342.78;5076037;28;20040;-78
2024/04/02 10:00:54;;;;;;;2.05;0.70;;;17.10;61.80;;;21.47;35.02;98350.34;5076723;28;20094;-78
2024/04/02 10:03:28;;;;;;;2.95;0.50;;;16.80;61.10;;;21.43;34.77;98358.94;5058948;28;20101;-78
2024/04/02 10:06:03;;;;;;;3.13;0.50;;;16.70;61.70;;;21.39;34.86;98365.66;5075441;28;20131;-78
2024/04/02 10:08:32;;;;;;;1.95;0.95;;;16.70;61.00;;;21.39;35.12;98366.47;5074868;28;20132;-78
2024/04/02 10:10:58;;;;;;;1.52;0.50;;;16.90;62.00;;;21.43;35.16;98369.59;5076082;28;20072;-78
2024/04/02 10:13:35;;;;;;;2.60;0.57;;;16.90;62.00;;;21.48;35.18;98370.63;5086147;28;20114;-78
2024/04/02 10:16:07;;;;;;;1.83;0.60;;;17.00;61.60;;;21.46;34.93;98370.03;5076622;28;20692;-78
2024/04/02 10:18:34;;;;;;;3.30;0.73;;;16.70;62.20;;;21.44;35.00;98369.38;5076240;28;20123;-77
2024/04/02 10:21:01;;;;;;;1.65;0.50;;;16.80;62.60;;;21.52;35.36;98360.41;5076331;28;20135;-77
2024/04/02 10:23:28;;;;;;;1.67;0.63;;;17.10;62.80;;;21.63;35.27;98362.56;5086565;28;20511;-77
2024/04/02 10:25:56;;;;;;;3.75;0.90;;;17.40;61.70;;;21.78;35.56;98357.91;5096846;28;20492;-78